Time;durP1;ratioP1;P1;durP2;ratioP2;P2;SDS_P1;SDS_P2;PMS_P1;PMS_P2;Temp;Humidity;BMP_temperature;BMP_pressure;BME280_temperature;BME280_humidity;BME280_pressure;Samples;Min_cycle;Max_cycle;Signal;HPM_P1;HPM_P2
2023/04/01 00:00:27;;;;;;;2.53;0.73;;;8.30;91.30;;;;;;5000533;28;20208;-90
2023/04/01 00:02:54;;;;;;;1.52;0.82;;;8.30;91.50;;;;;;4989672;28;20211;-89
2023/04/01 00:05:21;;;;;;;0.80;0.80;;;8.30;91.60;;;;;;5003477;28;20290;-90
2023/04/01 00:07:47;;;;;;;2.63;0.95;;;8.20;91.90;;;;;;5007502;28;20265;-89
2023/04/01 00:10:16;;;;;;;1.95;0.60;;;8.20;92.10;;;;;;5008003;28;20647;-89
2023/04/01 00:12:44;;;;;;;0.85;0.70;;;8.20;92.00;;;;;;5005846;28;20195;-90
2023/04/01 00:15:13;;;;;;;0.77;0.63;;;8.20;92.00;;;;;;5010617;28;20676;-89
2023/04/01 00:17:40;;;;;;;1.50;0.80;;;8.10;92.10;;;;;;5004466;28;20203;-90
2023/04/01 00:20:09;;;;;;;1.50;0.68;;;8.10;92.00;;;;;;4998747;28;20207;-90
2023/04/01 00:22:36;;;;;;;2.30;0.93;;;8.10;91.90;;;;;;4985895;28;20259;-87
2023/04/01 00:25:03;;;;;;;0.90;0.60;;;8.10;91.90;;;;;;5009343;28;20249;-90
2023/04/01 00:27:30;;;;;;;1.05;0.80;;;8.10;91.70;;;;;;5001942;28;20214;-89
2023/04/01 00:29:57;;;;;;;2.97;1.27;;;8.10;91.90;;;;;;4998661;28;20241;-90
2023/04/01 00:32:26;;;;;;;2.78;0.85;;;8.10;91.90;;;;;;4999157;28;20226;-88
2023/04/01 00:34:53;;;;;;;0.73;0.50;;;8.10;91.90;;;;;;5008876;28;20195;-90
2023/04/01 00:37:21;;;;;;;2.40;0.82;;;8.00;92.40;;;;;;5004099;28;20218;-90
2023/04/01 00:39:48;;;;;;;3.33;0.82;;;8.00;92.20;;;;;;4997738;28;20227;-90
2023/04/01 00:42:15;;;;;;;3.50;0.93;;;7.90;92.20;;;;;;5007647;28;20207;-88
2023/04/01 00:44:42;;;;;;;0.95;0.65;;;7.90;92.50;;;;;;4998977;28;20195;-87
2023/04/01 00:47:09;;;;;;;2.90;1.00;;;7.90;92.30;;;;;;4998761;28;20200;-88
2023/04/01 00:49:40;;;;;;;1.60;0.90;;;7.90;92.70;;;;;;5004843;28;20203;-89
2023/04/01 00:52:09;;;;;;;4.00;0.90;;;8.00;92.50;;;;;;5001539;28;20224;-90
2023/04/01 00:54:38;;;;;;;1.60;0.70;;;7.90;92.50;;;;;;5005394;28;20204;-89
2023/04/01 00:57:09;;;;;;;1.92;0.95;;;8.00;92.30;;;;;;5003927;28;20614;-89
2023/04/01 00:59:41;;;;;;;1.67;0.70;;;8.00;92.70;;;;;;5003089;28;20203;-89
2023/04/01 01:02:11;;;;;;;2.50;1.02;;;7.90;92.90;;;;;;5004816;28;20203;-89
2023/04/01 01:04:39;;;;;;;3.20;0.90;;;7.90;92.40;;;;;;5004393;28;20199;-90
2023/04/01 01:07:19;;;;;;;1.90;0.80;;;7.90;92.50;;;;;;4991358;28;20196;-90
2023/04/01 01:09:56;;;;;;;3.05;0.80;;;8.10;92.10;;;;;;4998470;28;20203;-90
2023/04/01 01:12:30;;;;;;;3.28;0.95;;;8.20;91.50;;;;;;4997294;28;20218;-89
2023/04/01 01:15:07;;;;;;;2.90;1.20;;;8.20;91.70;;;;;;4990784;28;20644;-90
2023/04/01 01:17:46;;;;;;;3.10;1.10;;;8.20;91.50;;;;;;4997928;28;20212;-89
2023/04/01 01:20:27;;;;;;;2.42;1.05;;;8.20;91.60;;;;;;5002875;28;20199;-90
2023/04/01 01:23:13;;;;;;;2.63;0.88;;;8.20;91.30;;;;;;5006053;28;20684;-89
2023/04/01 01:25:53;;;;;;;2.33;0.88;;;8.20;91.70;;;;;;5004598;28;20667;-89
2023/04/01 01:28:33;;;;;;;2.13;0.80;;;8.30;91.20;;;;;;5022054;28;20211;-90
2023/04/01 01:31:10;;;;;;;2.08;0.90;;;8.30;91.10;;;;;;5009327;28;20548;-90
2023/04/01 01:33:59;;;;;;;2.03;0.95;;;8.20;91.10;;;;;;5003742;28;20198;-89
2023/04/01 01:36:31;;;;;;;2.22;0.90;;;8.30;91.20;;;;;;5022899;28;20604;-90
2023/04/01 01:38:58;;;;;;;3.47;0.95;;;8.30;91.10;;;;;;5015361;28;20215;-89
2023/04/01 01:41:27;;;;;;;3.65;0.88;;;8.40;91.10;;;;;;5020783;28;20215;-89
2023/04/01 01:43:56;;;;;;;1.50;0.63;;;8.40;90.80;;;;;;5022627;28;20249;-90
2023/04/01 01:46:27;;;;;;;3.50;0.98;;;8.40;90.40;;;;;;5014277;28;20215;-90
2023/04/01 01:48:56;;;;;;;1.92;1.00;;;8.40;90.60;;;;;;4996170;28;20200;-89
2023/04/01 01:51:23;;;;;;;4.82;1.20;;;8.30;91.10;;;;;;5002488;28;20230;-89
2023/04/01 01:53:51;;;;;;;2.47;0.88;;;8.20;91.20;;;;;;5009952;28;20558;-90
2023/04/01 01:56:21;;;;;;;4.10;1.00;;;8.20;91.30;;;;;;5007571;28;20208;-89
2023/04/01 01:58:50;;;;;;;3.08;0.95;;;8.20;91.50;;;;;;5021954;28;20551;-92
2023/04/01 02:01:21;;;;;;;1.63;0.80;;;8.20;91.10;;;;;;4991110;28;20203;-90
2023/04/01 02:03:49;;;;;;;2.80;0.88;;;8.30;91.00;;;;;;5014550;28;20206;-89
2023/04/01 02:06:18;;;;;;;1.65;0.80;;;8.30;91.20;;;;;;5008740;28;20708;-89
2023/04/01 02:08:47;;;;;;;1.23;0.60;;;8.20;91.10;;;;;;4995158;28;20200;-89
2023/04/01 02:11:19;;;;;;;1.80;0.80;;;8.20;91.20;;;;;;4996208;28;20224;-89
2023/04/01 02:13:51;;;;;;;1.23;0.90;;;8.20;91.20;;;;;;5008712;28;20208;-90
2023/04/01 02:16:22;;;;;;;2.08;0.93;;;8.20;90.90;;;;;;4995554;28;20203;-90
2023/04/01 02:18:52;;;;;;;1.48;0.70;;;8.20;91.20;;;;;;5002791;28;20530;-90
2023/04/01 02:21:22;;;;;;;1.90;0.90;;;8.20;91.00;;;;;;5002494;28;21455;-90
2023/04/01 02:23:51;;;;;;;1.90;0.70;;;8.20;91.00;;;;;;4996658;28;20200;-89
2023/04/01 02:26:21;;;;;;;1.38;0.90;;;8.20;90.90;;;;;;4996498;28;20196;-91
2023/04/01 02:28:49;;;;;;;1.58;0.60;;;8.30;90.30;;;;;;4999487;28;20195;-92
2023/04/01 02:31:17;;;;;;;0.68;0.60;;;8.30;90.30;;;;;;5001256;28;20219;-89
2023/04/01 02:33:44;;;;;;;2.42;0.60;;;8.30;90.30;;;;;;5009256;28;20206;-89
2023/04/01 02:36:13;;;;;;;0.65;0.65;;;8.20;90.30;;;;;;5019351;28;20195;-89
2023/04/01 02:38:41;;;;;;;0.82;0.52;;;8.20;90.30;;;;;;5000004;28;20202;-90
2023/04/01 02:41:08;;;;;;;0.73;0.60;;;8.20;90.30;;;;;;5001002;28;20652;-89
2023/04/01 02:43:36;;;;;;;1.63;0.65;;;8.20;90.30;;;;;;5006395;28;20203;-89
2023/04/01 02:46:03;;;;;;;1.02;0.70;;;8.30;90.30;;;;;;4986295;28;20235;-88
2023/04/01 02:48:30;;;;;;;1.00;0.50;;;8.20;90.30;;;;;;4993698;28;20192;-88
2023/04/01 02:50:57;;;;;;;2.13;0.80;;;8.20;90.30;;;;;;5000840;28;20226;-88
2023/04/01 02:53:24;;;;;;;0.60;0.60;;;8.10;90.30;;;;;;4999070;28;20229;-88
2023/04/01 02:55:52;;;;;;;2.42;0.60;;;8.10;90.30;;;;;;5002710;28;20561;-88
2023/04/01 02:58:19;;;;;;;1.30;0.60;;;8.20;90.50;;;;;;5009909;28;20235;-88
2023/04/01 03:00:47;;;;;;;0.55;0.55;;;8.20;90.30;;;;;;5013263;28;20202;-88
2023/04/01 03:03:14;;;;;;;0.70;0.50;;;8.20;90.30;;;;;;5011955;28;20203;-90
2023/04/01 03:05:41;;;;;;;2.20;0.60;;;8.20;90.30;;;;;;4993319;28;20196;-88
2023/04/01 03:08:08;;;;;;;1.33;0.85;;;8.10;90.30;;;;;;5004775;28;20204;-88
2023/04/01 03:10:34;;;;;;;1.42;0.68;;;8.10;90.30;;;;;;4998386;28;20203;-89
2023/04/01 03:13:01;;;;;;;0.73;0.55;;;8.20;90.30;;;;;;4996260;28;20220;-88
2023/04/01 03:15:28;;;;;;;0.57;0.55;;;8.10;90.30;;;;;;5002482;28;20561;-88
2023/04/01 03:17:57;;;;;;;0.55;0.55;;;8.10;90.30;;;;;;5013256;28;20200;-88
2023/04/01 03:20:24;;;;;;;0.65;0.40;;;8.10;90.30;;;;;;4995799;28;20195;-88
2023/04/01 03:22:51;;;;;;;0.90;0.60;;;8.10;90.30;;;;;;4995471;28;20624;-88
2023/04/01 03:25:19;;;;;;;0.73;0.68;;;8.20;90.30;;;;;;4997411;28;20215;-88
2023/04/01 03:27:46;;;;;;;0.40;0.40;;;8.10;90.30;;;;;;5000361;28;20208;-88
2023/04/01 03:30:13;;;;;;;0.57;0.40;;;8.10;90.30;;;;;;5004067;28;20687;-88
2023/04/01 03:32:40;;;;;;;1.33;0.57;;;8.10;90.30;;;;;;4992360;28;20219;-88
2023/04/01 03:35:10;;;;;;;0.47;0.47;;;8.00;90.30;;;;;;5013153;28;20199;-87
2023/04/01 03:37:37;;;;;;;0.55;0.40;;;8.00;90.50;;;;;;5010042;28;20206;-88
2023/04/01 03:40:04;;;;;;;0.50;0.50;;;8.00;90.30;;;;;;5002470;28;20547;-88
2023/04/01 03:42:32;;;;;;;1.05;0.68;;;8.00;90.30;;;;;;5002675;28;20200;-87
2023/04/01 03:44:59;;;;;;;0.30;0.30;;;7.90;90.20;;;;;;5017719;28;20199;-87
2023/04/01 03:47:25;;;;;;;1.83;0.60;;;7.90;90.20;;;;;;5009787;28;20195;-88
2023/04/01 03:49:52;;;;;;;0.85;0.60;;;7.80;90.50;;;;;;5005068;28;20206;-88
2023/04/01 03:52:20;;;;;;;0.95;0.40;;;7.70;90.80;;;;;;5011719;28;20231;-88
2023/04/01 03:54:47;;;;;;;0.80;0.65;;;7.70;91.00;;;;;;5010012;28;20195;-88
2023/04/01 03:57:17;;;;;;;1.08;0.60;;;7.80;90.80;;;;;;5004935;28;20207;-88
2023/04/01 03:59:44;;;;;;;0.60;0.50;;;7.80;90.90;;;;;;5006878;28;20537;-88
2023/04/01 04:02:11;;;;;;;0.80;0.50;;;7.70;91.10;;;;;;4994029;28;20208;-88
2023/04/01 04:04:38;;;;;;;1.77;0.60;;;7.70;91.20;;;;;;5007653;28;20211;-88
2023/04/01 04:07:05;;;;;;;0.52;0.50;;;7.70;91.20;;;;;;5011347;28;20290;-88
2023/04/01 04:09:33;;;;;;;1.05;0.50;;;7.70;91.30;;;;;;5005099;28;20582;-88
2023/04/01 04:12:00;;;;;;;0.68;0.52;;;7.70;91.40;;;;;;5009249;28;20628;-89
2023/04/01 04:14:28;;;;;;;1.17;0.65;;;7.70;91.50;;;;;;5005975;28;20203;-91
2023/04/01 04:16:54;;;;;;;1.85;0.80;;;7.70;91.60;;;;;;5003574;28;20202;-87
2023/04/01 04:19:21;;;;;;;0.75;0.60;;;7.60;91.80;;;;;;5009713;28;20200;-87
2023/04/01 04:21:48;;;;;;;0.75;0.68;;;7.70;91.60;;;;;;5001031;28;20226;-87
2023/04/01 04:24:15;;;;;;;0.82;0.50;;;7.70;91.50;;;;;;5003008;28;20228;-89
2023/04/01 04:26:44;;;;;;;1.55;0.73;;;7.70;91.80;;;;;;5008730;28;20215;-87
2023/04/01 04:29:11;;;;;;;1.58;0.73;;;7.70;91.90;;;;;;4996331;28;20655;-91
2023/04/01 04:31:37;;;;;;;0.50;0.50;;;7.80;91.80;;;;;;5002626;28;20234;-90
2023/04/01 04:34:04;;;;;;;3.75;0.68;;;7.80;92.10;;;;;;5011711;28;20297;-89
2023/04/01 04:36:31;;;;;;;0.70;0.70;;;7.80;91.50;;;;;;5006117;28;20202;-90
2023/04/01 04:39:01;;;;;;;1.17;0.63;;;7.80;91.50;;;;;;5008365;28;20203;-90
2023/04/01 04:41:28;;;;;;;1.65;0.80;;;7.80;91.50;;;;;;4999039;28;20187;-90
2023/04/01 04:43:58;;;;;;;2.20;0.80;;;7.90;91.30;;;;;;5008963;28;20203;-90
2023/04/01 04:46:25;;;;;;;0.68;0.50;;;7.90;91.20;;;;;;5003751;28;20289;-89
2023/04/01 04:48:52;;;;;;;1.90;0.65;;;7.90;91.30;;;;;;5011639;28;20853;-87
2023/04/01 04:51:20;;;;;;;0.95;0.65;;;7.90;91.50;;;;;;5006836;28;20206;-88
2023/04/01 04:53:47;;;;;;;0.93;0.52;;;7.90;91.50;;;;;;5000158;28;20231;-90
2023/04/01 04:56:17;;;;;;;0.75;0.50;;;7.90;91.20;;;;;;4998768;28;20206;-90
2023/04/01 04:58:44;;;;;;;2.30;0.52;;;7.90;91.50;;;;;;5002896;28;20653;-90
2023/04/01 05:01:16;;;;;;;1.58;0.77;;;8.00;91.50;;;;;;5014562;28;20577;-90
2023/04/01 05:03:43;;;;;;;1.92;0.80;;;8.00;90.90;;;;;;5003744;28;20200;-87
2023/04/01 05:06:13;;;;;;;0.68;0.57;;;8.00;91.30;;;;;;4988271;28;20203;-87
2023/04/01 05:08:41;;;;;;;0.68;0.68;;;8.00;91.10;;;;;;5009768;28;20199;-87
2023/04/01 05:11:10;;;;;;;0.98;0.50;;;8.00;91.10;;;;;;5015684;28;20303;-88
2023/04/01 05:13:37;;;;;;;0.77;0.50;;;8.10;90.70;;;;;;5001347;28;20215;-87
2023/04/01 05:16:04;;;;;;;1.95;0.70;;;8.20;90.30;;;;;;5014665;28;20214;-87
2023/04/01 05:18:32;;;;;;;1.48;0.75;;;8.10;90.30;;;;;;5011814;28;20203;-87
2023/04/01 05:20:59;;;;;;;1.98;0.70;;;8.20;90.30;;;;;;5003288;28;20200;-89
2023/04/01 05:23:26;;;;;;;1.23;0.70;;;8.20;90.30;;;;;;5004823;28;20224;-90
2023/04/01 05:25:53;;;;;;;2.30;0.90;;;8.20;90.30;;;;;;5008082;28;20203;-90
2023/04/01 05:28:20;;;;;;;2.97;0.70;;;8.20;89.70;;;;;;5012415;28;20250;-89
2023/04/01 05:30:47;;;;;;;0.93;0.57;;;8.30;90.30;;;;;;5001183;28;20195;-90
2023/04/01 05:33:14;;;;;;;0.98;0.60;;;8.30;88.60;;;;;;5006075;28;20714;-91
2023/04/01 05:35:42;;;;;;;3.80;0.70;;;8.40;88.20;;;;;;5016927;28;20278;-90
2023/04/01 05:38:11;;;;;;;1.83;0.65;;;8.40;88.10;;;;;;5014793;28;20651;-89
2023/04/01 05:40:38;;;;;;;0.68;0.50;;;8.40;87.00;;;;;;5011855;28;20204;-90
2023/04/01 05:43:05;;;;;;;1.00;0.70;;;8.50;86.30;;;;;;4998629;28;20210;-90
2023/04/01 05:45:32;;;;;;;1.33;0.70;;;8.50;85.20;;;;;;5007094;28;20200;-87
2023/04/01 05:48:00;;;;;;;1.30;0.85;;;8.50;84.00;;;;;;5005125;28;20196;-87
2023/04/01 05:50:29;;;;;;;1.85;0.70;;;8.50;85.10;;;;;;5000995;28;20223;-88
2023/04/01 05:52:57;;;;;;;1.35;0.80;;;8.50;84.40;;;;;;5001641;28;20254;-87
2023/04/01 05:55:24;;;;;;;1.85;0.90;;;8.60;84.40;;;;;;5004343;28;20199;-89
2023/04/01 05:57:51;;;;;;;1.02;0.68;;;8.60;83.10;;;;;;5000537;28;20211;-90
2023/04/01 06:00:19;;;;;;;1.30;0.85;;;8.60;83.40;;;;;;5014612;28;20625;-90
2023/04/01 06:02:47;;;;;;;1.02;0.65;;;8.60;83.50;;;;;;5015867;28;20238;-89
2023/04/01 06:05:18;;;;;;;1.90;1.00;;;8.70;82.80;;;;;;5006364;28;20204;-90
2023/04/01 06:07:45;;;;;;;2.20;0.85;;;8.80;82.90;;;;;;5010476;28;20204;-90
2023/04/01 06:10:40;;;;;;;1.60;0.80;;;8.80;81.20;;;;;;4996126;28;20205;-89
2023/04/01 06:13:11;;;;;;;1.52;0.80;;;8.80;81.00;;;;;;5004371;28;20227;-89
2023/04/01 06:15:43;;;;;;;0.85;0.60;;;8.80;80.50;;;;;;5004596;28;20235;-90
2023/04/01 06:18:53;;;;;;;3.17;0.90;;;8.80;80.10;;;;;;4997316;28;20203;-90
2023/04/01 06:21:43;;;;;;;3.90;0.93;;;8.80;80.50;;;;;;4991340;28;20211;-89
2023/04/01 06:24:32;;;;;;;1.95;0.75;;;8.90;79.20;;;;;;5005021;28;20196;-90
2023/04/01 06:27:14;;;;;;;3.10;0.95;;;8.90;78.30;;;;;;5015475;28;20203;-87
2023/04/01 06:30:03;;;;;;;2.13;0.85;;;9.10;76.20;;;;;;5009269;28;20191;-87
2023/04/01 06:32:56;;;;;;;2.00;0.80;;;9.20;75.10;;;;;;5015995;28;20681;-87
2023/04/01 06:35:47;;;;;;;2.63;1.10;;;9.30;74.20;;;;;;5015245;28;20219;-87
2023/04/01 06:38:30;;;;;;;4.15;0.90;;;9.50;72.70;;;;;;5004830;28;20204;-87
2023/04/01 06:41:09;;;;;;;1.85;0.73;;;9.70;71.80;;;;;;5011067;28;20195;-87
2023/04/01 06:43:48;;;;;;;3.83;0.88;;;10.00;63.10;;;;;;5007341;28;20199;-87
2023/04/01 06:46:22;;;;;;;1.27;0.90;;;10.10;59.50;;;;;;5008738;28;20199;-90
2023/04/01 06:49:22;;;;;;;2.38;1.13;;;10.00;59.30;;;;;;5004072;28;20199;-91
2023/04/01 06:51:56;;;;;;;2.85;0.85;;;10.00;60.00;;;;;;5006852;28;20207;-89
2023/04/01 06:54:29;;;;;;;1.88;0.98;;;9.80;61.10;;;;;;5000270;28;20203;-90
2023/04/01 06:57:02;;;;;;;2.35;0.85;;;9.70;62.60;;;;;;5005306;28;20200;-86
2023/04/01 06:59:33;;;;;;;1.42;1.10;;;9.60;63.70;;;;;;4985214;28;20242;-86
2023/04/01 07:02:05;;;;;;;1.33;0.98;;;9.70;64.40;;;;;;5000401;28;21305;-92
2023/04/01 07:04:35;;;;;;;2.97;1.08;;;9.70;66.10;;;;;;5005031;28;20597;-87
2023/04/01 07:07:06;;;;;;;1.17;0.90;;;9.80;62.60;;;;;;4999045;28;20202;-85
2023/04/01 07:09:37;;;;;;;1.10;0.65;;;10.00;58.60;;;;;;5006575;28;20191;-85
2023/04/01 07:12:11;;;;;;;1.83;1.00;;;10.20;58.80;;;;;;5003135;28;20196;-88
2023/04/01 07:14:43;;;;;;;2.95;1.02;;;10.30;58.30;;;;;;4983616;28;20628;-88
2023/04/01 07:17:16;;;;;;;3.85;0.90;;;10.30;55.40;;;;;;5000708;28;20206;-87
2023/04/01 07:19:48;;;;;;;1.92;0.88;;;10.40;55.10;;;;;;5008012;28;20218;-88
2023/04/01 07:22:32;;;;;;;2.25;0.88;;;10.30;53.40;;;;;;5007633;28;20302;-88
2023/04/01 07:25:06;;;;;;;1.35;1.05;;;10.10;54.30;;;;;;5003678;28;20187;-89
2023/04/01 07:27:33;;;;;;;1.13;0.77;;;10.20;55.60;;;;;;5001579;28;20203;-88
2023/04/01 07:30:03;;;;;;;2.13;1.20;;;10.00;54.30;;;;;;5004196;28;20199;-85
2023/04/01 07:32:38;;;;;;;2.22;0.95;;;9.90;57.60;;;;;;5003608;28;20684;-85
2023/04/01 07:35:21;;;;;;;1.50;0.98;;;10.00;56.90;;;;;;5004190;28;20206;-86
2023/04/01 07:37:59;;;;;;;0.95;0.80;;;10.10;55.00;;;;;;5001214;28;20203;-86
2023/04/01 07:40:33;;;;;;;1.15;0.82;;;10.20;54.60;;;;;;4987647;28;20714;-87
2023/04/01 07:43:20;;;;;;;2.25;1.05;;;10.30;56.20;;;;;;4997915;28;20664;-90
2023/04/01 07:45:59;;;;;;;1.33;0.73;;;10.40;53.00;;;;;;5017264;28;20202;-91
2023/04/01 07:48:32;;;;;;;1.48;0.70;;;10.60;52.30;;;;;;5010827;28;20206;-89
2023/04/01 07:51:04;;;;;;;1.10;0.90;;;11.00;49.80;;;;;;4991080;28;20286;-90
2023/04/01 07:53:36;;;;;;;1.42;0.80;;;11.10;48.60;;;;;;4990979;28;20219;-89
2023/04/01 07:56:09;;;;;;;1.23;0.70;;;11.30;48.00;;;;;;4994768;28;20195;-91
2023/04/01 07:58:45;;;;;;;1.58;0.80;;;11.40;46.30;;;;;;5006271;28;20212;-92
2023/04/01 08:01:22;;;;;;;1.45;0.80;;;11.50;47.70;;;;;;4994062;28;20196;-91
2023/04/01 08:04:14;;;;;;;0.82;0.63;;;11.70;43.70;;;;;;5006544;28;20195;-92
2023/04/01 08:06:46;;;;;;;0.90;0.52;;;11.70;42.20;;;;;;4998340;28;20203;-89
2023/04/01 08:09:23;;;;;;;0.80;0.65;;;11.50;40.50;;;;;;4976432;28;20200;-87
2023/04/01 08:12:04;;;;;;;1.52;0.75;;;11.20;41.30;;;;;;5006199;28;20211;-89
2023/04/01 08:14:40;;;;;;;1.23;0.82;;;11.10;44.40;;;;;;4994430;28;20215;-90
2023/04/01 08:20:22;;;;;;;2.63;0.90;;;11.30;45.30;;;;;;5000599;28;20226;-93
2023/04/01 08:22:52;;;;;;;2.05;1.40;;;11.50;43.00;;;;;;5033638;23;21647;-95
